sensor_id;sensor_type;location;lat;lon;timestamp;P1;durP1;ratioP1;P2;durP2;ratioP2
12120;SDS011;6124;59.460;17.908;2022-09-09T00:01:47;1.77;;;1.30;;
12120;SDS011;6124;59.460;17.908;2022-09-09T00:04:20;1.83;;;1.40;;
12120;SDS011;6124;59.460;17.908;2022-09-09T00:06:51;1.53;;;1.43;;
12120;SDS011;6124;59.460;17.908;2022-09-09T00:09:23;1.50;;;1.40;;
12120;SDS011;6124;59.460;17.908;2022-09-09T00:11:54;3.30;;;1.40;;
12120;SDS011;6124;59.460;17.908;2022-09-09T00:14:23;1.93;;;1.40;;
12120;SDS011;6124;59.460;17.908;2022-09-09T00:16:54;1.97;;;1.50;;
12120;SDS011;6124;59.460;17.908;2022-09-09T00:19:23;1.93;;;1.30;;
12120;SDS011;6124;59.460;17.908;2022-09-09T00:21:53;1.50;;;1.40;;
12120;SDS011;6124;59.460;17.908;2022-09-09T00:24:24;3.33;;;1.30;;
12120;SDS011;6124;59.460;17.908;2022-09-09T00:26:56;1.50;;;1.40;;
12120;SDS011;6124;59.460;17.908;2022-09-09T00:29:26;1.97;;;1.30;;
12120;SDS011;6124;59.460;17.908;2022-09-09T00:31:57;1.93;;;1.30;;
12120;SDS011;6124;59.460;17.908;2022-09-09T00:34:28;1.30;;;1.20;;
12120;SDS011;6124;59.460;17.908;2022-09-09T00:36:56;1.47;;;1.37;;
12120;SDS011;6124;59.460;17.908;2022-09-09T00:39:27;1.47;;;1.37;;
12120;SDS011;6124;59.460;17.908;2022-09-09T00:42:02;1.77;;;1.40;;
12120;SDS011;6124;59.460;17.908;2022-09-09T00:44:34;2.17;;;1.40;;
12120;SDS011;6124;59.460;17.908;2022-09-09T00:47:09;2.07;;;1.40;;
12120;SDS011;6124;59.460;17.908;2022-09-09T00:49:42;1.70;;;1.50;;
12120;SDS011;6124;59.460;17.908;2022-09-09T00:52:18;1.43;;;1.33;;
12120;SDS011;6124;59.460;17.908;2022-09-09T00:54:48;2.67;;;1.60;;
12120;SDS011;6124;59.460;17.908;2022-09-09T00:57:24;1.50;;;1.40;;
12120;SDS011;6124;59.460;17.908;2022-09-09T00:59:56;1.53;;;1.43;;
12120;SDS011;6124;59.460;17.908;2022-09-09T01:02:28;3.07;;;1.47;;
12120;SDS011;6124;59.460;17.908;2022-09-09T01:04:57;1.60;;;1.50;;
12120;SDS011;6124;59.460;17.908;2022-09-09T01:07:29;1.47;;;1.37;;
12120;SDS011;6124;59.460;17.908;2022-09-09T01:09:57;2.20;;;1.30;;
12120;SDS011;6124;59.460;17.908;2022-09-09T01:12:28;1.37;;;1.27;;
12120;SDS011;6124;59.460;17.908;2022-09-09T01:14:58;2.13;;;1.37;;
12120;SDS011;6124;59.460;17.908;2022-09-09T01:17:28;2.20;;;1.60;;
12120;SDS011;6124;59.460;17.908;2022-09-09T01:20:03;1.27;;;1.17;;
12120;SDS011;6124;59.460;17.908;2022-09-09T01:22:34;1.30;;;1.20;;
12120;SDS011;6124;59.460;17.908;2022-09-09T01:27:54;1.20;;;1.10;;
12120;SDS011;6124;59.460;17.908;2022-09-09T01:30:23;1.37;;;1.00;;
12120;SDS011;6124;59.460;17.908;2022-09-09T01:32:52;1.37;;;1.23;;
12120;SDS011;6124;59.460;17.908;2022-09-09T01:35:23;1.30;;;1.20;;
12120;SDS011;6124;59.460;17.908;2022-09-09T01:37:55;1.80;;;1.00;;
12120;SDS011;6124;59.460;17.908;2022-09-09T01:40:22;0.97;;;0.97;;
12120;SDS011;6124;59.460;17.908;2022-09-09T01:42:50;1.10;;;1.00;;
12120;SDS011;6124;59.460;17.908;2022-09-09T01:45:19;1.20;;;1.10;;
12120;SDS011;6124;59.460;17.908;2022-09-09T01:47:46;1.27;;;1.17;;
12120;SDS011;6124;59.460;17.908;2022-09-09T01:50:14;1.20;;;1.10;;
12120;SDS011;6124;59.460;17.908;2022-09-09T01:52:42;1.07;;;0.97;;
12120;SDS011;6124;59.460;17.908;2022-09-09T01:55:10;2.93;;;1.30;;
12120;SDS011;6124;59.460;17.908;2022-09-09T01:57:39;1.20;;;1.10;;
12120;SDS011;6124;59.460;17.908;2022-09-09T02:00:10;0.90;;;0.90;;
12120;SDS011;6124;59.460;17.908;2022-09-09T02:02:41;1.30;;;1.20;;
12120;SDS011;6124;59.460;17.908;2022-09-09T02:05:16;1.23;;;1.10;;
12120;SDS011;6124;59.460;17.908;2022-09-09T02:07:46;1.03;;;1.00;;
12120;SDS011;6124;59.460;17.908;2022-09-09T02:10:21;1.53;;;1.10;;
12120;SDS011;6124;59.460;17.908;2022-09-09T02:12:50;1.40;;;1.27;;
12120;SDS011;6124;59.460;17.908;2022-09-09T02:15:19;1.40;;;1.30;;
12120;SDS011;6124;59.460;17.908;2022-09-09T02:17:50;1.30;;;1.20;;
12120;SDS011;6124;59.460;17.908;2022-09-09T02:20:19;1.30;;;1.20;;
12120;SDS011;6124;59.460;17.908;2022-09-09T02:22:50;1.33;;;1.20;;
12120;SDS011;6124;59.460;17.908;2022-09-09T02:25:18;2.00;;;1.20;;
12120;SDS011;6124;59.460;17.908;2022-09-09T02:27:47;1.13;;;1.00;;
12120;SDS011;6124;59.460;17.908;2022-09-09T02:30:15;0.83;;;0.83;;
12120;SDS011;6124;59.460;17.908;2022-09-09T02:32:42;0.97;;;0.90;;
12120;SDS011;6124;59.460;17.908;2022-09-09T02:35:13;1.20;;;1.10;;
12120;SDS011;6124;59.460;17.908;2022-09-09T02:37:42;1.23;;;1.00;;
12120;SDS011;6124;59.460;17.908;2022-09-09T02:40:12;1.00;;;0.90;;
12120;SDS011;6124;59.460;17.908;2022-09-09T02:42:41;1.20;;;1.10;;
12120;SDS011;6124;59.460;17.908;2022-09-09T02:45:09;1.17;;;0.90;;
12120;SDS011;6124;59.460;17.908;2022-09-09T02:47:37;1.10;;;1.00;;
12120;SDS011;6124;59.460;17.908;2022-09-09T02:50:08;1.43;;;1.10;;
12120;SDS011;6124;59.460;17.908;2022-09-09T02:52:43;1.97;;;0.87;;
12120;SDS011;6124;59.460;17.908;2022-09-09T02:55:14;1.43;;;1.00;;
12120;SDS011;6124;59.460;17.908;2022-09-09T02:57:42;1.00;;;0.90;;
12120;SDS011;6124;59.460;17.908;2022-09-09T03:00:12;1.00;;;0.90;;
12120;SDS011;6124;59.460;17.908;2022-09-09T03:02:40;1.27;;;0.77;;
12120;SDS011;6124;59.460;17.908;2022-09-09T03:05:07;1.17;;;1.00;;
12120;SDS011;6124;59.460;17.908;2022-09-09T03:07:34;0.70;;;0.70;;
12120;SDS011;6124;59.460;17.908;2022-09-09T03:10:03;1.00;;;0.83;;
12120;SDS011;6124;59.460;17.908;2022-09-09T03:12:31;0.73;;;0.73;;
12120;SDS011;6124;59.460;17.908;2022-09-09T03:14:58;0.90;;;0.90;;
12120;SDS011;6124;59.460;17.908;2022-09-09T03:17:25;1.23;;;0.83;;
12120;SDS011;6124;59.460;17.908;2022-09-09T03:19:53;1.47;;;0.90;;
12120;SDS011;6124;59.460;17.908;2022-09-09T03:22:22;3.00;;;1.00;;
12120;SDS011;6124;59.460;17.908;2022-09-09T03:24:50;2.30;;;0.90;;
12120;SDS011;6124;59.460;17.908;2022-09-09T03:27:19;2.00;;;1.00;;
12120;SDS011;6124;59.460;17.908;2022-09-09T03:29:46;1.70;;;0.90;;
12120;SDS011;6124;59.460;17.908;2022-09-09T03:32:15;2.40;;;0.90;;
12120;SDS011;6124;59.460;17.908;2022-09-09T03:34:42;1.90;;;0.93;;
12120;SDS011;6124;59.460;17.908;2022-09-09T03:37:10;2.00;;;1.10;;
12120;SDS011;6124;59.460;17.908;2022-09-09T03:39:37;1.10;;;0.80;;
12120;SDS011;6124;59.460;17.908;2022-09-09T03:42:04;1.10;;;1.00;;
12120;SDS011;6124;59.460;17.908;2022-09-09T03:44:33;1.47;;;1.00;;
12120;SDS011;6124;59.460;17.908;2022-09-09T03:47:00;1.03;;;0.90;;
12120;SDS011;6124;59.460;17.908;2022-09-09T03:49:27;1.33;;;1.10;;
12120;SDS011;6124;59.460;17.908;2022-09-09T03:51:55;1.77;;;1.00;;
12120;SDS011;6124;59.460;17.908;2022-09-09T03:54:23;1.23;;;0.80;;
12120;SDS011;6124;59.460;17.908;2022-09-09T03:56:50;2.87;;;1.33;;
12120;SDS011;6124;59.460;17.908;2022-09-09T03:59:18;1.10;;;1.00;;
12120;SDS011;6124;59.460;17.908;2022-09-09T04:01:47;2.50;;;1.07;;
12120;SDS011;6124;59.460;17.908;2022-09-09T04:04:15;2.17;;;1.10;;
12120;SDS011;6124;59.460;17.908;2022-09-09T04:06:42;3.03;;;1.27;;
12120;SDS011;6124;59.460;17.908;2022-09-09T04:09:09;2.10;;;1.03;;
12120;SDS011;6124;59.460;17.908;2022-09-09T04:11:36;1.40;;;1.00;;
12120;SDS011;6124;59.460;17.908;2022-09-09T04:14:04;1.27;;;1.10;;
12120;SDS011;6124;59.460;17.908;2022-09-09T04:16:32;1.33;;;1.00;;
12120;SDS011;6124;59.460;17.908;2022-09-09T04:19:01;1.43;;;1.07;;
12120;SDS011;6124;59.460;17.908;2022-09-09T04:21:29;2.20;;;1.17;;
12120;SDS011;6124;59.460;17.908;2022-09-09T04:23:56;1.70;;;1.10;;
12120;SDS011;6124;59.460;17.908;2022-09-09T04:26:24;2.23;;;1.30;;
12120;SDS011;6124;59.460;17.908;2022-09-09T04:28:51;2.03;;;1.30;;
12120;SDS011;6124;59.460;17.908;2022-09-09T04:31:19;2.60;;;1.10;;
12120;SDS011;6124;59.460;17.908;2022-09-09T04:33:48;2.00;;;1.10;;
12120;SDS011;6124;59.460;17.908;2022-09-09T04:36:17;4.93;;;1.40;;
12120;SDS011;6124;59.460;17.908;2022-09-09T04:38:45;2.67;;;1.30;;
12120;SDS011;6124;59.460;17.908;2022-09-09T04:41:12;2.27;;;1.30;;
12120;SDS011;6124;59.460;17.908;2022-09-09T04:43:39;2.07;;;1.30;;
12120;SDS011;6124;59.460;17.908;2022-09-09T04:46:07;2.20;;;1.10;;
12120;SDS011;6124;59.460;17.908;2022-09-09T04:48:34;1.10;;;1.00;;
12120;SDS011;6124;59.460;17.908;2022-09-09T04:51:02;2.10;;;1.20;;
12120;SDS011;6124;59.460;17.908;2022-09-09T04:53:31;1.67;;;1.30;;
12120;SDS011;6124;59.460;17.908;2022-09-09T04:56:02;1.40;;;1.10;;
12120;SDS011;6124;59.460;17.908;2022-09-09T04:58:30;1.20;;;1.00;;
12120;SDS011;6124;59.460;17.908;2022-09-09T05:01:04;1.80;;;1.20;;
12120;SDS011;6124;59.460;17.908;2022-09-09T05:03:32;3.80;;;1.37;;
12120;SDS011;6124;59.460;17.908;2022-09-09T05:06:03;1.63;;;1.20;;
12120;SDS011;6124;59.460;17.908;2022-09-09T05:08:32;2.30;;;1.20;;
12120;SDS011;6124;59.460;17.908;2022-09-09T05:10:59;1.40;;;1.17;;
12120;SDS011;6124;59.460;17.908;2022-09-09T05:13:27;1.97;;;1.13;;
12120;SDS011;6124;59.460;17.908;2022-09-09T05:15:56;1.77;;;1.10;;
12120;SDS011;6124;59.460;17.908;2022-09-09T05:18:23;1.57;;;1.03;;
12120;SDS011;6124;59.460;17.908;2022-09-09T05:20:51;1.17;;;1.07;;
12120;SDS011;6124;59.460;17.908;2022-09-09T05:23:18;1.43;;;1.10;;
12120;SDS011;6124;59.460;17.908;2022-09-09T05:25:55;1.40;;;1.23;;
12120;SDS011;6124;59.460;17.908;2022-09-09T05:28:23;1.80;;;1.10;;
12120;SDS011;6124;59.460;17.908;2022-09-09T05:30:55;2.03;;;1.10;;
12120;SDS011;6124;59.460;17.908;2022-09-09T05:33:23;1.40;;;1.10;;
12120;SDS011;6124;59.460;17.908;2022-09-09T05:35:54;1.97;;;1.20;;
12120;SDS011;6124;59.460;17.908;2022-09-09T05:38:22;2.03;;;1.13;;
12120;SDS011;6124;59.460;17.908;2022-09-09T05:40:50;1.90;;;1.37;;
12120;SDS011;6124;59.460;17.908;2022-09-09T05:43:19;2.53;;;1.30;;
12120;SDS011;6124;59.460;17.908;2022-09-09T05:45:46;3.10;;;1.10;;
12120;SDS011;6124;59.460;17.908;2022-09-09T05:48:13;3.07;;;2.47;;
12120;SDS011;6124;59.460;17.908;2022-09-09T05:50:41;5.70;;;1.87;;
12120;SDS011;6124;59.460;17.908;2022-09-09T05:53:10;1.97;;;1.47;;
12120;SDS011;6124;59.460;17.908;2022-09-09T05:55:37;1.80;;;1.33;;
12120;SDS011;6124;59.460;17.908;2022-09-09T05:58:04;2.63;;;1.50;;
12120;SDS011;6124;59.460;17.908;2022-09-09T06:00:33;1.90;;;1.37;;
12120;SDS011;6124;59.460;17.908;2022-09-09T06:03:00;4.70;;;1.83;;
12120;SDS011;6124;59.460;17.908;2022-09-09T06:05:28;2.60;;;1.50;;
12120;SDS011;6124;59.460;17.908;2022-09-09T06:07:55;3.17;;;1.50;;
12120;SDS011;6124;59.460;17.908;2022-09-09T06:10:22;2.17;;;1.53;;
12120;SDS011;6124;59.460;17.908;2022-09-09T06:12:52;5.20;;;1.57;;
12120;SDS011;6124;59.460;17.908;2022-09-09T06:15:19;3.30;;;1.40;;
12120;SDS011;6124;59.460;17.908;2022-09-09T06:17:48;6.57;;;1.50;;
12120;SDS011;6124;59.460;17.908;2022-09-09T06:20:21;3.60;;;1.30;;
12120;SDS011;6124;59.460;17.908;2022-09-09T06:22:48;5.63;;;1.40;;
12120;SDS011;6124;59.460;17.908;2022-09-09T06:25:15;3.83;;;1.40;;
12120;SDS011;6124;59.460;17.908;2022-09-09T06:27:43;2.30;;;1.40;;
12120;SDS011;6124;59.460;17.908;2022-09-09T06:30:15;4.33;;;1.30;;
12120;SDS011;6124;59.460;17.908;2022-09-09T06:32:43;2.33;;;1.00;;
12120;SDS011;6124;59.460;17.908;2022-09-09T06:35:12;6.30;;;1.30;;
12120;SDS011;6124;59.460;17.908;2022-09-09T06:37:39;1.53;;;0.80;;
12120;SDS011;6124;59.460;17.908;2022-09-09T06:40:07;2.53;;;0.80;;
12120;SDS011;6124;59.460;17.908;2022-09-09T06:42:34;2.10;;;0.73;;
12120;SDS011;6124;59.460;17.908;2022-09-09T06:45:01;3.37;;;0.97;;
12120;SDS011;6124;59.460;17.908;2022-09-09T06:47:29;3.13;;;0.90;;
12120;SDS011;6124;59.460;17.908;2022-09-09T06:49:56;3.47;;;0.90;;
12120;SDS011;6124;59.460;17.908;2022-09-09T06:52:25;2.10;;;0.80;;
12120;SDS011;6124;59.460;17.908;2022-09-09T06:54:53;2.23;;;1.10;;
12120;SDS011;6124;59.460;17.908;2022-09-09T06:57:20;1.80;;;0.83;;
12120;SDS011;6124;59.460;17.908;2022-09-09T06:59:48;2.93;;;1.07;;
12120;SDS011;6124;59.460;17.908;2022-09-09T07:02:15;2.07;;;0.97;;
12120;SDS011;6124;59.460;17.908;2022-09-09T07:04:43;3.20;;;1.00;;
12120;SDS011;6124;59.460;17.908;2022-09-09T07:07:10;1.63;;;0.70;;
12120;SDS011;6124;59.460;17.908;2022-09-09T07:09:41;2.63;;;0.80;;
12120;SDS011;6124;59.460;17.908;2022-09-09T07:12:10;2.67;;;0.87;;
12120;SDS011;6124;59.460;17.908;2022-09-09T07:14:39;2.70;;;0.80;;
12120;SDS011;6124;59.460;17.908;2022-09-09T07:17:06;1.50;;;0.90;;
12120;SDS011;6124;59.460;17.908;2022-09-09T07:19:33;2.80;;;0.80;;
12120;SDS011;6124;59.460;17.908;2022-09-09T07:22:01;1.77;;;0.80;;
12120;SDS011;6124;59.460;17.908;2022-09-09T07:24:29;1.27;;;0.80;;
12120;SDS011;6124;59.460;17.908;2022-09-09T07:26:58;3.63;;;1.10;;
12120;SDS011;6124;59.460;17.908;2022-09-09T07:29:25;2.27;;;0.70;;
12120;SDS011;6124;59.460;17.908;2022-09-09T07:31:52;1.93;;;0.90;;
12120;SDS011;6124;59.460;17.908;2022-09-09T07:34:20;1.10;;;0.90;;
12120;SDS011;6124;59.460;17.908;2022-09-09T07:36:47;1.70;;;0.90;;
12120;SDS011;6124;59.460;17.908;2022-09-09T07:39:14;2.23;;;1.00;;
12120;SDS011;6124;59.460;17.908;2022-09-09T07:41:43;2.13;;;0.80;;
12120;SDS011;6124;59.460;17.908;2022-09-09T07:44:12;2.07;;;0.97;;
12120;SDS011;6124;59.460;17.908;2022-09-09T07:46:40;3.87;;;0.93;;
12120;SDS011;6124;59.460;17.908;2022-09-09T07:49:08;1.20;;;0.73;;
12120;SDS011;6124;59.460;17.908;2022-09-09T07:51:36;1.43;;;1.00;;
12120;SDS011;6124;59.460;17.908;2022-09-09T07:54:04;3.43;;;1.10;;
12120;SDS011;6124;59.460;17.908;2022-09-09T07:56:32;3.10;;;1.10;;
12120;SDS011;6124;59.460;17.908;2022-09-09T07:59:00;1.20;;;0.90;;
12120;SDS011;6124;59.460;17.908;2022-09-09T08:01:31;3.23;;;1.03;;
12120;SDS011;6124;59.460;17.908;2022-09-09T08:04:02;3.97;;;1.63;;
12120;SDS011;6124;59.460;17.908;2022-09-09T08:06:30;2.47;;;1.40;;
12120;SDS011;6124;59.460;17.908;2022-09-09T08:08:58;5.73;;;1.00;;
12120;SDS011;6124;59.460;17.908;2022-09-09T08:11:26;1.63;;;1.00;;
12120;SDS011;6124;59.460;17.908;2022-09-09T08:13:54;1.90;;;1.03;;
12120;SDS011;6124;59.460;17.908;2022-09-09T08:16:22;3.43;;;1.10;;
12120;SDS011;6124;59.460;17.908;2022-09-09T08:18:51;1.37;;;0.80;;
12120;SDS011;6124;59.460;17.908;2022-09-09T08:21:19;2.30;;;0.90;;
12120;SDS011;6124;59.460;17.908;2022-09-09T08:23:47;2.77;;;1.00;;
12120;SDS011;6124;59.460;17.908;2022-09-09T08:26:15;2.07;;;0.90;;
12120;SDS011;6124;59.460;17.908;2022-09-09T08:28:46;1.97;;;0.90;;
12120;SDS011;6124;59.460;17.908;2022-09-09T08:31:15;3.57;;;1.00;;
12120;SDS011;6124;59.460;17.908;2022-09-09T08:33:43;3.03;;;1.00;;
12120;SDS011;6124;59.460;17.908;2022-09-09T08:36:13;2.07;;;1.10;;
12120;SDS011;6124;59.460;17.908;2022-09-09T08:38:41;1.23;;;0.80;;
12120;SDS011;6124;59.460;17.908;2022-09-09T08:41:18;2.80;;;0.80;;
12120;SDS011;6124;59.460;17.908;2022-09-09T08:43:50;1.43;;;0.87;;
12120;SDS011;6124;59.460;17.908;2022-09-09T08:46:26;4.37;;;1.00;;
12120;SDS011;6124;59.460;17.908;2022-09-09T08:48:57;1.23;;;1.00;;
12120;SDS011;6124;59.460;17.908;2022-09-09T08:51:29;2.03;;;1.10;;
12120;SDS011;6124;59.460;17.908;2022-09-09T08:53:58;0.93;;;0.90;;
12120;SDS011;6124;59.460;17.908;2022-09-09T08:56:27;2.63;;;1.00;;
12120;SDS011;6124;59.460;17.908;2022-09-09T08:58:55;2.70;;;0.97;;
12120;SDS011;6124;59.460;17.908;2022-09-09T09:01:27;2.83;;;1.10;;
12120;SDS011;6124;59.460;17.908;2022-09-09T09:04:00;2.00;;;0.90;;
12120;SDS011;6124;59.460;17.908;2022-09-09T09:06:37;2.50;;;0.90;;
12120;SDS011;6124;59.460;17.908;2022-09-09T09:09:10;1.77;;;0.93;;
12120;SDS011;6124;59.460;17.908;2022-09-09T09:11:39;2.43;;;1.00;;
12120;SDS011;6124;59.460;17.908;2022-09-09T09:14:09;3.00;;;1.10;;
12120;SDS011;6124;59.460;17.908;2022-09-09T09:16:39;2.40;;;1.03;;
12120;SDS011;6124;59.460;17.908;2022-09-09T09:19:10;1.47;;;0.93;;
12120;SDS011;6124;59.460;17.908;2022-09-09T09:21:41;2.13;;;0.80;;
12120;SDS011;6124;59.460;17.908;2022-09-09T09:24:13;2.50;;;0.90;;
12120;SDS011;6124;59.460;17.908;2022-09-09T09:26:44;1.80;;;0.97;;
12120;SDS011;6124;59.460;17.908;2022-09-09T09:29:11;1.80;;;0.80;;
12120;SDS011;6124;59.460;17.908;2022-09-09T09:31:41;2.00;;;0.90;;
12120;SDS011;6124;59.460;17.908;2022-09-09T09:34:09;1.93;;;1.00;;
12120;SDS011;6124;59.460;17.908;2022-09-09T09:36:38;1.33;;;0.80;;
12120;SDS011;6124;59.460;17.908;2022-09-09T09:39:08;1.80;;;1.00;;
12120;SDS011;6124;59.460;17.908;2022-09-09T09:41:36;2.90;;;1.03;;
12120;SDS011;6124;59.460;17.908;2022-09-09T09:44:05;1.73;;;0.90;;
12120;SDS011;6124;59.460;17.908;2022-09-09T09:46:32;2.60;;;1.30;;
12120;SDS011;6124;59.460;17.908;2022-09-09T09:49:00;1.93;;;1.23;;
12120;SDS011;6124;59.460;17.908;2022-09-09T09:51:28;1.50;;;0.90;;
12120;SDS011;6124;59.460;17.908;2022-09-09T09:54:09;1.90;;;1.20;;
12120;SDS011;6124;59.460;17.908;2022-09-09T09:56:40;1.53;;;0.90;;
12120;SDS011;6124;59.460;17.908;2022-09-09T09:59:18;2.07;;;0.90;;
12120;SDS011;6124;59.460;17.908;2022-09-09T10:01:46;1.10;;;0.90;;
12120;SDS011;6124;59.460;17.908;2022-09-09T10:04:15;2.30;;;1.10;;
12120;SDS011;6124;59.460;17.908;2022-09-09T10:06:43;1.50;;;0.93;;
12120;SDS011;6124;59.460;17.908;2022-09-09T10:09:20;1.93;;;0.90;;
12120;SDS011;6124;59.460;17.908;2022-09-09T10:11:49;3.17;;;1.10;;
12120;SDS011;6124;59.460;17.908;2022-09-09T10:14:19;1.47;;;0.97;;
12120;SDS011;6124;59.460;17.908;2022-09-09T10:16:51;1.77;;;1.00;;
12120;SDS011;6124;59.460;17.908;2022-09-09T10:19:20;1.67;;;0.90;;
12120;SDS011;6124;59.460;17.908;2022-09-09T10:22:04;1.20;;;1.10;;
12120;SDS011;6124;59.460;17.908;2022-09-09T10:27:22;1.77;;;1.03;;
12120;SDS011;6124;59.460;17.908;2022-09-09T10:29:55;3.57;;;1.23;;
12120;SDS011;6124;59.460;17.908;2022-09-09T10:32:33;1.63;;;0.90;;
12120;SDS011;6124;59.460;17.908;2022-09-09T10:35:04;4.80;;;1.20;;
12120;SDS011;6124;59.460;17.908;2022-09-09T10:37:46;1.60;;;1.20;;
12120;SDS011;6124;59.460;17.908;2022-09-09T10:40:20;1.57;;;0.90;;
12120;SDS011;6124;59.460;17.908;2022-09-09T10:42:51;3.87;;;1.13;;
12120;SDS011;6124;59.460;17.908;2022-09-09T10:45:18;2.30;;;1.00;;
12120;SDS011;6124;59.460;17.908;2022-09-09T10:48:00;2.50;;;1.00;;
12120;SDS011;6124;59.460;17.908;2022-09-09T10:50:31;2.97;;;1.00;;
12120;SDS011;6124;59.460;17.908;2022-09-09T10:53:07;4.90;;;1.20;;
12120;SDS011;6124;59.460;17.908;2022-09-09T10:55:37;3.90;;;1.10;;
12120;SDS011;6124;59.460;17.908;2022-09-09T10:58:10;2.17;;;1.07;;
12120;SDS011;6124;59.460;17.908;2022-09-09T11:00:39;2.40;;;1.10;;
12120;SDS011;6124;59.460;17.908;2022-09-09T11:03:09;2.17;;;1.20;;
12120;SDS011;6124;59.460;17.908;2022-09-09T11:05:39;3.77;;;1.00;;
12120;SDS011;6124;59.460;17.908;2022-09-09T11:08:10;2.90;;;1.10;;
12120;SDS011;6124;59.460;17.908;2022-09-09T11:10:39;2.03;;;0.90;;
12120;SDS011;6124;59.460;17.908;2022-09-09T11:13:10;1.00;;;0.90;;
12120;SDS011;6124;59.460;17.908;2022-09-09T11:15:41;2.97;;;1.00;;
12120;SDS011;6124;59.460;17.908;2022-09-09T11:18:10;2.30;;;0.93;;
12120;SDS011;6124;59.460;17.908;2022-09-09T11:20:39;2.53;;;1.10;;
12120;SDS011;6124;59.460;17.908;2022-09-09T11:23:09;1.80;;;1.03;;
12120;SDS011;6124;59.460;17.908;2022-09-09T11:25:39;2.33;;;1.00;;
12120;SDS011;6124;59.460;17.908;2022-09-09T11:28:14;1.50;;;1.10;;
12120;SDS011;6124;59.460;17.908;2022-09-09T11:30:48;1.80;;;1.03;;
12120;SDS011;6124;59.460;17.908;2022-09-09T11:36:06;1.93;;;1.00;;
12120;SDS011;6124;59.460;17.908;2022-09-09T11:38:40;1.10;;;0.80;;
12120;SDS011;6124;59.460;17.908;2022-09-09T11:41:11;1.70;;;1.10;;
12120;SDS011;6124;59.460;17.908;2022-09-09T11:43:41;2.67;;;1.20;;
12120;SDS011;6124;59.460;17.908;2022-09-09T11:46:09;2.10;;;1.07;;
12120;SDS011;6124;59.460;17.908;2022-09-09T11:48:37;1.83;;;1.00;;
12120;SDS011;6124;59.460;17.908;2022-09-09T11:51:09;1.67;;;0.90;;
12120;SDS011;6124;59.460;17.908;2022-09-09T11:53:47;1.10;;;1.00;;
12120;SDS011;6124;59.460;17.908;2022-09-09T11:56:22;1.63;;;1.20;;
12120;SDS011;6124;59.460;17.908;2022-09-09T11:58:56;1.27;;;1.00;;
12120;SDS011;6124;59.460;17.908;2022-09-09T12:01:26;1.70;;;0.93;;
12120;SDS011;6124;59.460;17.908;2022-09-09T12:03:59;1.93;;;1.17;;
12120;SDS011;6124;59.460;17.908;2022-09-09T12:06:29;1.20;;;1.00;;
12120;SDS011;6124;59.460;17.908;2022-09-09T12:08:58;1.60;;;1.20;;
12120;SDS011;6124;59.460;17.908;2022-09-09T12:11:33;1.57;;;1.07;;
12120;SDS011;6124;59.460;17.908;2022-09-09T12:14:03;1.77;;;0.90;;
12120;SDS011;6124;59.460;17.908;2022-09-09T12:16:32;1.23;;;0.90;;
12120;SDS011;6124;59.460;17.908;2022-09-09T12:19:13;2.03;;;1.30;;
12120;SDS011;6124;59.460;17.908;2022-09-09T12:21:44;1.03;;;1.00;;
12120;SDS011;6124;59.460;17.908;2022-09-09T12:24:13;1.53;;;1.10;;
12120;SDS011;6124;59.460;17.908;2022-09-09T12:26:43;1.63;;;1.00;;
12120;SDS011;6124;59.460;17.908;2022-09-09T12:29:18;2.47;;;1.23;;
12120;SDS011;6124;59.460;17.908;2022-09-09T12:31:50;1.93;;;1.17;;
12120;SDS011;6124;59.460;17.908;2022-09-09T12:34:20;2.47;;;1.30;;
12120;SDS011;6124;59.460;17.908;2022-09-09T12:36:53;2.77;;;1.20;;
12120;SDS011;6124;59.460;17.908;2022-09-09T12:39:22;1.37;;;1.20;;
12120;SDS011;6124;59.460;17.908;2022-09-09T12:41:52;2.30;;;1.27;;
12120;SDS011;6124;59.460;17.908;2022-09-09T12:44:25;1.43;;;1.30;;
12120;SDS011;6124;59.460;17.908;2022-09-09T12:46:53;1.40;;;1.10;;
12120;SDS011;6124;59.460;17.908;2022-09-09T12:49:24;1.30;;;1.20;;
12120;SDS011;6124;59.460;17.908;2022-09-09T12:51:53;2.90;;;1.40;;
12120;SDS011;6124;59.460;17.908;2022-09-09T12:54:22;1.37;;;1.07;;
12120;SDS011;6124;59.460;17.908;2022-09-09T12:56:49;1.60;;;1.10;;
12120;SDS011;6124;59.460;17.908;2022-09-09T12:59:21;1.40;;;1.30;;
12120;SDS011;6124;59.460;17.908;2022-09-09T13:01:56;2.70;;;1.40;;
12120;SDS011;6124;59.460;17.908;2022-09-09T13:04:23;2.10;;;1.30;;
12120;SDS011;6124;59.460;17.908;2022-09-09T13:06:51;2.07;;;1.20;;
12120;SDS011;6124;59.460;17.908;2022-09-09T13:09:18;1.43;;;1.23;;
12120;SDS011;6124;59.460;17.908;2022-09-09T13:11:46;1.50;;;1.20;;
12120;SDS011;6124;59.460;17.908;2022-09-09T13:14:17;4.40;;;1.37;;
12120;SDS011;6124;59.460;17.908;2022-09-09T13:16:55;1.70;;;1.23;;
12120;SDS011;6124;59.460;17.908;2022-09-09T13:19:23;2.07;;;1.30;;
12120;SDS011;6124;59.460;17.908;2022-09-09T13:21:54;1.90;;;1.20;;
12120;SDS011;6124;59.460;17.908;2022-09-09T13:24:25;1.43;;;1.33;;
12120;SDS011;6124;59.460;17.908;2022-09-09T13:26:54;2.23;;;1.27;;
12120;SDS011;6124;59.460;17.908;2022-09-09T13:29:22;4.70;;;1.30;;
12120;SDS011;6124;59.460;17.908;2022-09-09T13:31:50;1.40;;;1.30;;
12120;SDS011;6124;59.460;17.908;2022-09-09T13:34:30;2.10;;;1.10;;
12120;SDS011;6124;59.460;17.908;2022-09-09T13:36:59;1.40;;;1.30;;
12120;SDS011;6124;59.460;17.908;2022-09-09T13:39:28;2.13;;;1.40;;
12120;SDS011;6124;59.460;17.908;2022-09-09T13:41:56;1.47;;;1.20;;
12120;SDS011;6124;59.460;17.908;2022-09-09T13:44:25;1.70;;;1.23;;
12120;SDS011;6124;59.460;17.908;2022-09-09T13:47:00;3.40;;;1.50;;
12120;SDS011;6124;59.460;17.908;2022-09-09T13:49:30;2.07;;;1.03;;
12120;SDS011;6124;59.460;17.908;2022-09-09T13:52:05;1.93;;;1.20;;
12120;SDS011;6124;59.460;17.908;2022-09-09T13:54:35;2.50;;;1.30;;
12120;SDS011;6124;59.460;17.908;2022-09-09T13:57:02;2.40;;;1.50;;
12120;SDS011;6124;59.460;17.908;2022-09-09T13:59:30;1.37;;;1.27;;
12120;SDS011;6124;59.460;17.908;2022-09-09T14:01:57;1.40;;;1.20;;
12120;SDS011;6124;59.460;17.908;2022-09-09T14:04:26;2.23;;;1.20;;
12120;SDS011;6124;59.460;17.908;2022-09-09T14:06:55;2.60;;;1.57;;
12120;SDS011;6124;59.460;17.908;2022-09-09T14:09:23;1.27;;;1.17;;
12120;SDS011;6124;59.460;17.908;2022-09-09T14:11:50;1.53;;;1.30;;
12120;SDS011;6124;59.460;17.908;2022-09-09T14:14:17;2.27;;;1.30;;
12120;SDS011;6124;59.460;17.908;2022-09-09T14:16:45;1.43;;;1.30;;
12120;SDS011;6124;59.460;17.908;2022-09-09T14:19:12;2.47;;;1.57;;
12120;SDS011;6124;59.460;17.908;2022-09-09T14:21:39;2.17;;;1.50;;
12120;SDS011;6124;59.460;17.908;2022-09-09T14:24:08;2.43;;;1.27;;
12120;SDS011;6124;59.460;17.908;2022-09-09T14:26:35;1.50;;;1.23;;
12120;SDS011;6124;59.460;17.908;2022-09-09T14:29:03;1.97;;;1.23;;
12120;SDS011;6124;59.460;17.908;2022-09-09T14:31:30;2.00;;;1.47;;
12120;SDS011;6124;59.460;17.908;2022-09-09T14:33:57;1.83;;;1.40;;
12120;SDS011;6124;59.460;17.908;2022-09-09T14:36:25;1.73;;;1.23;;
12120;SDS011;6124;59.460;17.908;2022-09-09T14:38:52;2.60;;;1.30;;
12120;SDS011;6124;59.460;17.908;2022-09-09T14:41:21;2.83;;;1.50;;
12120;SDS011;6124;59.460;17.908;2022-09-09T14:43:48;1.20;;;1.10;;
12120;SDS011;6124;59.460;17.908;2022-09-09T14:46:17;2.30;;;1.40;;
12120;SDS011;6124;59.460;17.908;2022-09-09T14:48:45;2.93;;;1.20;;
12120;SDS011;6124;59.460;17.908;2022-09-09T14:51:14;1.73;;;1.40;;
12120;SDS011;6124;59.460;17.908;2022-09-09T14:53:42;2.67;;;1.30;;
12120;SDS011;6124;59.460;17.908;2022-09-09T14:56:10;2.70;;;1.37;;
12120;SDS011;6124;59.460;17.908;2022-09-09T14:58:39;1.30;;;1.20;;
12120;SDS011;6124;59.460;17.908;2022-09-09T15:01:07;2.40;;;1.30;;
12120;SDS011;6124;59.460;17.908;2022-09-09T15:03:35;1.67;;;1.40;;
12120;SDS011;6124;59.460;17.908;2022-09-09T15:06:06;2.00;;;1.20;;
12120;SDS011;6124;59.460;17.908;2022-09-09T15:08:34;2.17;;;1.20;;
12120;SDS011;6124;59.460;17.908;2022-09-09T15:11:02;2.63;;;1.20;;